WetterOnline ( https://www.wetteronline.de )

Wetter aktuell Herford

Aktuelles Wetter: Bad Salzuflen (139m)

6-stündlich | Neueste Meldungen
Ortszeit Temperatur Wetter
Mi, 14.04. 14:00 6.6° C bewölkt
Mi, 14.04. 8:00 -0.3° C bewölkt
Mi, 14.04. 2:00 -0.5° C wolkenlos
Di, 13.04. 20:00 4.7° C bewölkt
Di, 13.04. 14:00 8.5° C leicht bewölkt
Di, 13.04. 8:00 0.5° C bewölkt
Di, 13.04. 2:00 0.3° C leicht bewölkt
Mo, 12.04. 20:00 3.8° C fast wolkenlos
Ortszeit Temperatur Wetter
Mi, 14.04. 19:00 6.1° C leicht bewölkt
Mi, 14.04. 18:50 6.1° C leicht bewölkt
Mi, 14.04. 18:40 6.5° C leicht bewölkt
Mi, 14.04. 18:30 6.2° C bewölkt
Mi, 14.04. 18:20 6.2° C bewölkt
Mi, 14.04. 18:10 6.8° C bewölkt
Mi, 14.04. 18:00 6.1° C bewölkt
Mi, 14.04. 17:30 6.6° C leicht bewölkt
Mi, 14.04. 17:00 6.3° C wolkig
Mi, 14.04. 16:30 6.8° C wolkig
Mi, 14.04. 16:00 5.3° C wolkig
Ortszeit Relative Feuchte Sichtweite
Mi, 14.04. 14:00 57% 40 km
Mi, 14.04. 8:00 92% 22 km
Mi, 14.04. 2:00 92% 35 km
Di, 13.04. 20:00 69% >70 km
Di, 13.04. 14:00 44% 55 km
Di, 13.04. 8:00 90% 22 km
Di, 13.04. 2:00 90% 24 km
Mo, 12.04. 20:00 70% >70 km
Ortszeit Relative Feuchte Sichtweite
Mi, 14.04. 19:00 60% 60 km
Mi, 14.04. 18:50 60% -
Mi, 14.04. 18:40 51% -
Mi, 14.04. 18:30 53% 65 km
Mi, 14.04. 18:20 53% -
Mi, 14.04. 18:10 56% -
Mi, 14.04. 18:00 55% 55 km
Mi, 14.04. 17:30 55% 65 km
Mi, 14.04. 17:00 57% >70 km
Mi, 14.04. 16:30 63% 60 km
Mi, 14.04. 16:00 67% 50 km
Ortszeit Niederschlagsmenge Niederschlagsart
Mi, 14.04. 14:00 0.1 l/m2 in 6 Std. Schnee, Regen
Mi, 14.04. 8:00 0.4 l/m2 in 12 Std. -
Mi, 14.04. 2:00 0.4 l/m2 in 6 Std. Schnee, Regen
Di, 13.04. 20:00 0.5 l/m2 in 12 Std. Regen
Di, 13.04. 14:00 0.1 l/m2 in 6 Std. Regen
Di, 13.04. 8:00 0.0 l/m2 in 12 Std. -
Di, 13.04. 2:00 0.0 l/m2 in 6 Std. -
Mo, 12.04. 20:00 0.7 l/m2 in 12 Std. Schnee, Regen
Ortszeit Niederschlagsmenge Niederschlagsart
Mi, 14.04. 19:00 0.0 l/m2 in 1 Std. -
Mi, 14.04. 18:50 keine Meldung -
Mi, 14.04. 18:40 keine Meldung -
Mi, 14.04. 18:30 0.0 l/m2 in 1 Std. -
Mi, 14.04. 18:20 keine Meldung -
Mi, 14.04. 18:10 keine Meldung -
Mi, 14.04. 18:00 0.0 l/m2 in 1 Std. -
Mi, 14.04. 17:30 0.0 l/m2 in 1 Std. -
Mi, 14.04. 17:00 0.0 l/m2 in 1 Std. -
Mi, 14.04. 16:30 0.0 l/m2 in 1 Std. -
Mi, 14.04. 16:00 0.0 l/m2 in 1 Std. -
Ortszeit Stärke Spitze Richtung
km/h Bft. km/h Grad Sektor
Mi, 14.04. 14:00 6 1 26 90° O
Mi, 14.04. 8:00 4 1 7 190° S
Mi, 14.04. 2:00 0 0 43 - -
Di, 13.04. 20:00 4 1 47 290° W
Di, 13.04. 14:00 13 3 31 290° W
Di, 13.04. 8:00 7 2 14 230° SW
Di, 13.04. 2:00 7 2 15 220° SW
Mo, 12.04. 20:00 7 2 35 240° SW
Ortszeit Stärke Spitze Richtung
km/h Bft. km/h Grad Sektor
Mi, 14.04. 19:00 11 2 25 360° N
Mi, 14.04. 18:50 11 2 - 360° N
Mi, 14.04. 18:40 13 3 - 360° N
Mi, 14.04. 18:30 11 2 26 330° NW
Mi, 14.04. 18:20 11 2 - 330° NW
Mi, 14.04. 18:10 13 3 - 320° NW
Mi, 14.04. 18:00 9 2 22 340° N
Mi, 14.04. 17:30 11 2 22 310° NW
Mi, 14.04. 17:00 11 2 32 310° NW
Mi, 14.04. 16:30 11 2 32 40° NO
Mi, 14.04. 16:00 14 3 36 20° N
Ortszeit Untergrenze Bedeckung Gattung
total tief tief mittel hoch
Mi, 14.04. 14:00 1800 m 7/8 7/8 - - -
Mi, 14.04. 8:00 630 m 7/8 7/8 - - -
Mi, 14.04. 2:00 - 0/8 0/8 - - -
Di, 13.04. 20:00 1350 m 7/8 7/8 - - -
Di, 13.04. 14:00 1440 m 4/8 4/8 - - -
Di, 13.04. 8:00 240 m 7/8 7/8 - - -
Di, 13.04. 2:00 750 m 2/8 2/8 - - -
Mo, 12.04. 20:00 2100 m 1/8 1/8 - - -
Ortszeit Bedeckungsgrad in Achtel und Wolkenuntergrenze
Mi, 14.04. 19:00 3(1110m) 3(1410m)
Mi, 14.04. 18:50 3(1110m) 3(1410m) 4(1500m)
Mi, 14.04. 18:40 3(1500m)
Mi, 14.04. 18:30 7(1500m) 7(2100m)
Mi, 14.04. 18:20 7(1500m) 7(2100m)
Mi, 14.04. 18:10 1(1200m) 7(1500m)
Mi, 14.04. 18:00 1(1410m) 7(1500m) 7(1800m)
Mi, 14.04. 17:30 2(1500m) 4(5100m)
Mi, 14.04. 17:00 3(870m) 7(5100m) 7(5700m)
Mi, 14.04. 16:30 3(1260m) 6(5100m) 6(6000m)
Mi, 14.04. 16:00 1(1050m) 4(1500m) 5(1800m)
Ortszeit Luftdruck NN (hPa) Tendenz (hPa in 3 Std.)
Mi, 14.04. 14:00 1030 - 0,8
Mi, 14.04. 8:00 1032 + 0,4
Mi, 14.04. 2:00 1032 - 0,3
Di, 13.04. 20:00 1031 + 0,5
Di, 13.04. 14:00 1031 - 0,9
Di, 13.04. 8:00 1031 + 1,2
Di, 13.04. 2:00 1030 + 0,6
Mo, 12.04. 20:00 1028 + 1,0
Ortszeit Luftdruck NN (hPa) Tendenz (hPa in 3 Std.)
Mi, 14.04. 19:00 1029 - 0,6
Mi, 14.04. 18:50 1029 keine Meldung
Mi, 14.04. 18:40 1029 keine Meldung
Mi, 14.04. 18:30 1029 - 0,6
Mi, 14.04. 18:20 1029 keine Meldung
Mi, 14.04. 18:10 1029 keine Meldung
Mi, 14.04. 18:00 1029 - 0,8
Mi, 14.04. 17:30 1029 - 1,0
Mi, 14.04. 17:00 1029 - 1,0
Mi, 14.04. 16:30 1029 - 1,1
Mi, 14.04. 16:00 1030 - 1,1
Ortszeit Schneehöhe (cm)
Mi, 14.04. 14:00 0
Mi, 14.04. 8:00 0
Mi, 14.04. 2:00 0
Di, 13.04. 20:00 0
Di, 13.04. 14:00 0
Di, 13.04. 8:00 0
Di, 13.04. 2:00 0
Mo, 12.04. 20:00 0
Ortszeit Schneehöhe (cm)
Mi, 14.04. 19:00 0
Mi, 14.04. 18:50 0
Mi, 14.04. 18:40 0
Mi, 14.04. 18:30 0
Mi, 14.04. 18:20 0
Mi, 14.04. 18:10 0
Mi, 14.04. 18:00 0
Mi, 14.04. 17:30 0
Mi, 14.04. 17:00 0
Mi, 14.04. 16:30 0
Mi, 14.04. 16:00 0
Link zu dieser Seite / Seite empfehlen

Das Wetter in ...